sensor_id;sensor_type;location;lat;lon;timestamp;P1;durP1;ratioP1;P2;durP2;ratioP2
13849;SDS011;6995;52.618;13.488;2022-07-29T00:01:06;27.25;;;25.70;;
13849;SDS011;6995;52.618;13.488;2022-07-29T00:03:31;26.10;;;24.70;;
13849;SDS011;6995;52.618;13.488;2022-07-29T00:05:57;25.58;;;24.02;;
13849;SDS011;6995;52.618;13.488;2022-07-29T00:08:22;28.27;;;26.65;;
13849;SDS011;6995;52.618;13.488;2022-07-29T00:10:48;27.38;;;25.52;;
13849;SDS011;6995;52.618;13.488;2022-07-29T00:13:14;25.25;;;23.67;;
13849;SDS011;6995;52.618;13.488;2022-07-29T00:15:39;25.75;;;24.25;;
13849;SDS011;6995;52.618;13.488;2022-07-29T00:18:05;27.73;;;26.20;;
13849;SDS011;6995;52.618;13.488;2022-07-29T00:20:31;27.05;;;25.42;;
13849;SDS011;6995;52.618;13.488;2022-07-29T00:22:56;26.15;;;24.42;;
13849;SDS011;6995;52.618;13.488;2022-07-29T00:25:22;27.85;;;26.00;;
13849;SDS011;6995;52.618;13.488;2022-07-29T00:27:48;25.55;;;24.08;;
13849;SDS011;6995;52.618;13.488;2022-07-29T00:30:13;26.27;;;24.70;;
13849;SDS011;6995;52.618;13.488;2022-07-29T00:32:39;25.50;;;24.00;;
13849;SDS011;6995;52.618;13.488;2022-07-29T00:35:05;26.25;;;24.70;;
13849;SDS011;6995;52.618;13.488;2022-07-29T00:37:50;25.20;;;23.20;;
13849;SDS011;6995;52.618;13.488;2022-07-29T00:40:16;24.50;;;23.10;;
13849;SDS011;6995;52.618;13.488;2022-07-29T00:42:42;25.63;;;23.30;;
13849;SDS011;6995;52.618;13.488;2022-07-29T00:45:09;26.05;;;24.52;;
13849;SDS011;6995;52.618;13.488;2022-07-29T00:47:35;22.67;;;21.35;;
13849;SDS011;6995;52.618;13.488;2022-07-29T00:50:01;23.98;;;22.67;;
13849;SDS011;6995;52.618;13.488;2022-07-29T00:52:26;23.80;;;22.40;;
13849;SDS011;6995;52.618;13.488;2022-07-29T00:54:52;23.00;;;21.48;;
13849;SDS011;6995;52.618;13.488;2022-07-29T00:57:21;24.10;;;22.55;;
13849;SDS011;6995;52.618;13.488;2022-07-29T00:59:46;22.30;;;20.95;;
13849;SDS011;6995;52.618;13.488;2022-07-29T01:02:12;22.88;;;21.27;;
13849;SDS011;6995;52.618;13.488;2022-07-29T01:04:37;21.92;;;20.52;;
13849;SDS011;6995;52.618;13.488;2022-07-29T01:07:04;23.48;;;22.15;;
13849;SDS011;6995;52.618;13.488;2022-07-29T01:09:32;24.15;;;22.45;;
13849;SDS011;6995;52.618;13.488;2022-07-29T01:11:58;23.98;;;22.58;;
13849;SDS011;6995;52.618;13.488;2022-07-29T01:14:24;22.63;;;21.02;;
13849;SDS011;6995;52.618;13.488;2022-07-29T01:21:54;22.17;;;20.70;;
13849;SDS011;6995;52.618;13.488;2022-07-29T01:26:59;20.77;;;19.50;;
13849;SDS011;6995;52.618;13.488;2022-07-29T01:29:53;23.27;;;21.90;;
13849;SDS011;6995;52.618;13.488;2022-07-29T01:32:22;22.05;;;20.65;;
13849;SDS011;6995;52.618;13.488;2022-07-29T01:37:32;22.38;;;20.77;;
13849;SDS011;6995;52.618;13.488;2022-07-29T01:40:09;23.40;;;22.00;;
13849;SDS011;6995;52.618;13.488;2022-07-29T01:42:45;23.48;;;22.10;;
13849;SDS011;6995;52.618;13.488;2022-07-29T01:48:03;23.88;;;22.48;;
13849;SDS011;6995;52.618;13.488;2022-07-29T01:50:52;23.40;;;21.85;;
13849;SDS011;6995;52.618;13.488;2022-07-29T01:53:34;24.13;;;22.23;;
13849;SDS011;6995;52.618;13.488;2022-07-29T01:56:11;22.13;;;20.67;;
13849;SDS011;6995;52.618;13.488;2022-07-29T01:58:41;21.08;;;19.73;;
13849;SDS011;6995;52.618;13.488;2022-07-29T02:01:09;20.55;;;19.02;;
13849;SDS011;6995;52.618;13.488;2022-07-29T02:03:36;21.00;;;19.80;;
13849;SDS011;6995;52.618;13.488;2022-07-29T02:06:04;21.42;;;20.05;;
13849;SDS011;6995;52.618;13.488;2022-07-29T02:08:32;22.70;;;20.80;;
13849;SDS011;6995;52.618;13.488;2022-07-29T02:10:59;21.42;;;19.92;;
13849;SDS011;6995;52.618;13.488;2022-07-29T02:13:27;21.77;;;20.38;;
13849;SDS011;6995;52.618;13.488;2022-07-29T02:15:55;21.27;;;19.80;;
13849;SDS011;6995;52.618;13.488;2022-07-29T02:18:22;22.10;;;20.50;;
13849;SDS011;6995;52.618;13.488;2022-07-29T02:20:50;19.88;;;18.55;;
13849;SDS011;6995;52.618;13.488;2022-07-29T02:23:20;21.27;;;19.98;;
13849;SDS011;6995;52.618;13.488;2022-07-29T02:25:53;21.38;;;19.70;;
13849;SDS011;6995;52.618;13.488;2022-07-29T02:28:21;21.52;;;20.23;;
13849;SDS011;6995;52.618;13.488;2022-07-29T02:30:50;22.67;;;21.23;;
13849;SDS011;6995;52.618;13.488;2022-07-29T02:33:18;21.73;;;20.13;;
13849;SDS011;6995;52.618;13.488;2022-07-29T02:35:45;20.60;;;19.50;;
13849;SDS011;6995;52.618;13.488;2022-07-29T02:38:13;22.65;;;21.35;;
13849;SDS011;6995;52.618;13.488;2022-07-29T02:41:00;22.02;;;20.73;;
13849;SDS011;6995;52.618;13.488;2022-07-29T02:43:29;24.83;;;23.45;;
13849;SDS011;6995;52.618;13.488;2022-07-29T02:45:56;22.65;;;21.10;;
13849;SDS011;6995;52.618;13.488;2022-07-29T02:48:27;22.35;;;20.63;;
13849;SDS011;6995;52.618;13.488;2022-07-29T02:51:03;20.75;;;19.45;;
13849;SDS011;6995;52.618;13.488;2022-07-29T02:53:33;19.40;;;17.90;;
13849;SDS011;6995;52.618;13.488;2022-07-29T02:56:01;22.20;;;20.88;;
13849;SDS011;6995;52.618;13.488;2022-07-29T02:58:40;23.10;;;21.48;;
13849;SDS011;6995;52.618;13.488;2022-07-29T03:01:20;22.30;;;20.83;;
13849;SDS011;6995;52.618;13.488;2022-07-29T03:03:48;20.50;;;19.13;;
13849;SDS011;6995;52.618;13.488;2022-07-29T03:06:17;21.27;;;19.98;;
13849;SDS011;6995;52.618;13.488;2022-07-29T03:08:45;20.40;;;19.10;;
13849;SDS011;6995;52.618;13.488;2022-07-29T03:11:12;21.83;;;20.52;;
13849;SDS011;6995;52.618;13.488;2022-07-29T03:13:39;20.42;;;19.17;;
13849;SDS011;6995;52.618;13.488;2022-07-29T03:16:06;20.85;;;19.55;;
13849;SDS011;6995;52.618;13.488;2022-07-29T03:18:33;21.85;;;20.38;;
13849;SDS011;6995;52.618;13.488;2022-07-29T03:21:01;21.13;;;19.75;;
13849;SDS011;6995;52.618;13.488;2022-07-29T03:23:28;20.88;;;19.08;;
13849;SDS011;6995;52.618;13.488;2022-07-29T03:25:54;21.40;;;20.10;;
13849;SDS011;6995;52.618;13.488;2022-07-29T03:28:20;23.13;;;21.52;;
13849;SDS011;6995;52.618;13.488;2022-07-29T03:30:45;21.48;;;20.20;;
13849;SDS011;6995;52.618;13.488;2022-07-29T03:33:11;22.80;;;21.55;;
13849;SDS011;6995;52.618;13.488;2022-07-29T03:35:37;21.10;;;19.80;;
13849;SDS011;6995;52.618;13.488;2022-07-29T03:38:03;21.67;;;20.42;;
13849;SDS011;6995;52.618;13.488;2022-07-29T03:43:05;20.60;;;19.48;;
13849;SDS011;6995;52.618;13.488;2022-07-29T03:45:34;22.05;;;20.67;;
13849;SDS011;6995;52.618;13.488;2022-07-29T03:48:01;22.73;;;21.42;;
13849;SDS011;6995;52.618;13.488;2022-07-29T03:50:32;20.75;;;19.65;;
13849;SDS011;6995;52.618;13.488;2022-07-29T03:52:59;22.83;;;21.33;;
13849;SDS011;6995;52.618;13.488;2022-07-29T03:55:26;20.42;;;18.80;;
13849;SDS011;6995;52.618;13.488;2022-07-29T03:57:56;21.80;;;20.45;;
13849;SDS011;6995;52.618;13.488;2022-07-29T04:00:23;21.85;;;20.33;;
13849;SDS011;6995;52.618;13.488;2022-07-29T04:02:50;22.15;;;20.85;;
13849;SDS011;6995;52.618;13.488;2022-07-29T04:05:24;24.00;;;22.08;;
13849;SDS011;6995;52.618;13.488;2022-07-29T04:07:57;22.48;;;20.98;;
13849;SDS011;6995;52.618;13.488;2022-07-29T04:10:23;20.60;;;19.48;;
13849;SDS011;6995;52.618;13.488;2022-07-29T04:12:56;20.15;;;18.52;;
13849;SDS011;6995;52.618;13.488;2022-07-29T04:15:30;22.08;;;20.67;;
13849;SDS011;6995;52.618;13.488;2022-07-29T04:17:56;23.88;;;22.10;;
13849;SDS011;6995;52.618;13.488;2022-07-29T04:20:34;22.95;;;21.55;;
13849;SDS011;6995;52.618;13.488;2022-07-29T04:23:04;21.40;;;19.92;;
13849;SDS011;6995;52.618;13.488;2022-07-29T04:25:30;23.77;;;22.48;;
13849;SDS011;6995;52.618;13.488;2022-07-29T04:27:56;22.88;;;21.48;;
13849;SDS011;6995;52.618;13.488;2022-07-29T04:30:27;20.88;;;19.48;;
13849;SDS011;6995;52.618;13.488;2022-07-29T04:32:54;19.55;;;18.42;;
13849;SDS011;6995;52.618;13.488;2022-07-29T04:35:21;22.40;;;21.15;;
13849;SDS011;6995;52.618;13.488;2022-07-29T04:37:46;23.27;;;21.50;;
13849;SDS011;6995;52.618;13.488;2022-07-29T04:40:12;20.52;;;19.40;;
13849;SDS011;6995;52.618;13.488;2022-07-29T04:42:39;20.58;;;19.17;;
13849;SDS011;6995;52.618;13.488;2022-07-29T04:45:05;22.27;;;20.98;;
13849;SDS011;6995;52.618;13.488;2022-07-29T04:47:31;21.33;;;20.02;;
13849;SDS011;6995;52.618;13.488;2022-07-29T04:49:56;21.38;;;20.17;;
13849;SDS011;6995;52.618;13.488;2022-07-29T04:52:22;22.20;;;20.58;;
13849;SDS011;6995;52.618;13.488;2022-07-29T04:54:49;20.38;;;19.02;;
13849;SDS011;6995;52.618;13.488;2022-07-29T04:57:15;19.98;;;18.98;;
13849;SDS011;6995;52.618;13.488;2022-07-29T04:59:40;20.33;;;19.13;;
13849;SDS011;6995;52.618;13.488;2022-07-29T05:02:07;21.67;;;20.40;;
13849;SDS011;6995;52.618;13.488;2022-07-29T05:04:32;20.98;;;19.58;;
13849;SDS011;6995;52.618;13.488;2022-07-29T05:06:58;23.30;;;21.85;;
13849;SDS011;6995;52.618;13.488;2022-07-29T05:09:26;23.65;;;22.35;;
13849;SDS011;6995;52.618;13.488;2022-07-29T05:11:52;24.85;;;23.42;;
13849;SDS011;6995;52.618;13.488;2022-07-29T05:14:17;24.48;;;22.77;;
13849;SDS011;6995;52.618;13.488;2022-07-29T05:16:43;23.73;;;22.50;;
13849;SDS011;6995;52.618;13.488;2022-07-29T05:19:09;25.08;;;23.20;;
13849;SDS011;6995;52.618;13.488;2022-07-29T05:21:35;24.42;;;22.90;;
13849;SDS011;6995;52.618;13.488;2022-07-29T05:24:00;27.67;;;25.88;;
13849;SDS011;6995;52.618;13.488;2022-07-29T05:26:26;26.48;;;24.92;;
13849;SDS011;6995;52.618;13.488;2022-07-29T05:28:52;28.58;;;26.73;;
13849;SDS011;6995;52.618;13.488;2022-07-29T05:31:18;28.65;;;25.83;;
13849;SDS011;6995;52.618;13.488;2022-07-29T05:33:44;27.95;;;26.23;;
13849;SDS011;6995;52.618;13.488;2022-07-29T05:36:10;23.50;;;22.25;;
13849;SDS011;6995;52.618;13.488;2022-07-29T05:38:36;22.17;;;21.00;;
13849;SDS011;6995;52.618;13.488;2022-07-29T05:41:08;23.23;;;21.38;;
13849;SDS011;6995;52.618;13.488;2022-07-29T05:43:35;22.92;;;21.55;;
13849;SDS011;6995;52.618;13.488;2022-07-29T05:46:00;24.02;;;22.35;;
13849;SDS011;6995;52.618;13.488;2022-07-29T05:48:30;22.35;;;20.98;;
13849;SDS011;6995;52.618;13.488;2022-07-29T05:50:57;24.58;;;22.95;;
13849;SDS011;6995;52.618;13.488;2022-07-29T05:53:30;24.33;;;22.92;;
13849;SDS011;6995;52.618;13.488;2022-07-29T05:55:56;23.15;;;21.38;;
13849;SDS011;6995;52.618;13.488;2022-07-29T06:01:25;22.35;;;20.65;;
13849;SDS011;6995;52.618;13.488;2022-07-29T06:03:51;23.92;;;22.48;;
13849;SDS011;6995;52.618;13.488;2022-07-29T06:06:17;26.00;;;24.40;;
13849;SDS011;6995;52.618;13.488;2022-07-29T06:08:43;27.95;;;25.85;;
13849;SDS011;6995;52.618;13.488;2022-07-29T06:11:08;25.30;;;23.77;;
13849;SDS011;6995;52.618;13.488;2022-07-29T06:13:34;23.85;;;22.48;;
13849;SDS011;6995;52.618;13.488;2022-07-29T06:16:00;23.75;;;22.35;;
13849;SDS011;6995;52.618;13.488;2022-07-29T06:18:26;26.02;;;23.83;;
13849;SDS011;6995;52.618;13.488;2022-07-29T06:20:52;27.70;;;25.77;;
13849;SDS011;6995;52.618;13.488;2022-07-29T06:23:18;29.10;;;27.50;;
13849;SDS011;6995;52.618;13.488;2022-07-29T06:25:44;24.98;;;23.67;;
13849;SDS011;6995;52.618;13.488;2022-07-29T06:28:10;23.25;;;21.92;;
13849;SDS011;6995;52.618;13.488;2022-07-29T06:30:36;22.60;;;21.20;;
13849;SDS011;6995;52.618;13.488;2022-07-29T06:33:03;24.05;;;22.70;;
13849;SDS011;6995;52.618;13.488;2022-07-29T06:35:28;24.42;;;22.95;;
13849;SDS011;6995;52.618;13.488;2022-07-29T06:37:54;22.52;;;20.73;;
13849;SDS011;6995;52.618;13.488;2022-07-29T06:40:20;24.05;;;22.33;;
13849;SDS011;6995;52.618;13.488;2022-07-29T06:43:04;20.73;;;19.42;;
13849;SDS011;6995;52.618;13.488;2022-07-29T06:45:30;20.92;;;19.65;;
13849;SDS011;6995;52.618;13.488;2022-07-29T06:47:58;21.88;;;20.30;;
13849;SDS011;6995;52.618;13.488;2022-07-29T06:50:36;24.20;;;22.42;;
13849;SDS011;6995;52.618;13.488;2022-07-29T06:53:07;21.70;;;20.20;;
13849;SDS011;6995;52.618;13.488;2022-07-29T06:55:33;23.98;;;22.35;;
13849;SDS011;6995;52.618;13.488;2022-07-29T06:57:59;23.13;;;21.25;;
13849;SDS011;6995;52.618;13.488;2022-07-29T07:00:24;26.08;;;23.90;;
13849;SDS011;6995;52.618;13.488;2022-07-29T07:02:50;21.33;;;19.65;;
13849;SDS011;6995;52.618;13.488;2022-07-29T07:05:16;23.50;;;21.75;;
13849;SDS011;6995;52.618;13.488;2022-07-29T07:07:44;23.17;;;21.23;;
13849;SDS011;6995;52.618;13.488;2022-07-29T07:10:10;23.15;;;21.70;;
13849;SDS011;6995;52.618;13.488;2022-07-29T07:12:36;23.25;;;21.85;;
13849;SDS011;6995;52.618;13.488;2022-07-29T07:15:01;22.17;;;20.60;;
13849;SDS011;6995;52.618;13.488;2022-07-29T07:17:28;22.58;;;20.85;;
13849;SDS011;6995;52.618;13.488;2022-07-29T07:19:53;21.48;;;19.88;;
13849;SDS011;6995;52.618;13.488;2022-07-29T07:22:19;22.00;;;20.67;;
13849;SDS011;6995;52.618;13.488;2022-07-29T07:24:45;21.38;;;20.08;;
13849;SDS011;6995;52.618;13.488;2022-07-29T07:27:10;23.27;;;21.35;;
13849;SDS011;6995;52.618;13.488;2022-07-29T07:29:36;23.85;;;21.55;;
13849;SDS011;6995;52.618;13.488;2022-07-29T07:32:06;19.90;;;18.48;;
13849;SDS011;6995;52.618;13.488;2022-07-29T07:34:33;20.48;;;18.95;;
13849;SDS011;6995;52.618;13.488;2022-07-29T07:36:59;22.08;;;20.55;;
13849;SDS011;6995;52.618;13.488;2022-07-29T07:39:24;21.00;;;19.60;;
13849;SDS011;6995;52.618;13.488;2022-07-29T07:41:51;21.75;;;20.35;;
13849;SDS011;6995;52.618;13.488;2022-07-29T07:44:17;20.00;;;18.55;;
13849;SDS011;6995;52.618;13.488;2022-07-29T07:46:43;21.60;;;19.95;;
13849;SDS011;6995;52.618;13.488;2022-07-29T07:49:09;21.00;;;19.45;;
13849;SDS011;6995;52.618;13.488;2022-07-29T07:51:35;21.13;;;19.75;;
13849;SDS011;6995;52.618;13.488;2022-07-29T07:54:01;21.27;;;19.70;;
13849;SDS011;6995;52.618;13.488;2022-07-29T07:56:27;20.23;;;18.92;;
13849;SDS011;6995;52.618;13.488;2022-07-29T07:58:52;20.67;;;19.55;;
13849;SDS011;6995;52.618;13.488;2022-07-29T08:01:21;19.17;;;18.05;;
13849;SDS011;6995;52.618;13.488;2022-07-29T08:03:48;20.60;;;19.33;;
13849;SDS011;6995;52.618;13.488;2022-07-29T08:06:14;20.35;;;19.05;;
13849;SDS011;6995;52.618;13.488;2022-07-29T08:08:40;19.42;;;18.33;;
13849;SDS011;6995;52.618;13.488;2022-07-29T08:11:06;19.70;;;18.42;;
13849;SDS011;6995;52.618;13.488;2022-07-29T08:13:32;20.90;;;19.15;;
13849;SDS011;6995;52.618;13.488;2022-07-29T08:15:59;17.48;;;16.42;;
13849;SDS011;6995;52.618;13.488;2022-07-29T08:18:36;22.27;;;20.98;;
13849;SDS011;6995;52.618;13.488;2022-07-29T08:21:02;17.88;;;16.65;;
13849;SDS011;6995;52.618;13.488;2022-07-29T08:23:28;18.67;;;17.00;;
13849;SDS011;6995;52.618;13.488;2022-07-29T08:26:03;19.08;;;18.00;;
13849;SDS011;6995;52.618;13.488;2022-07-29T08:28:36;19.17;;;17.98;;
13849;SDS011;6995;52.618;13.488;2022-07-29T08:31:02;20.15;;;18.85;;
13849;SDS011;6995;52.618;13.488;2022-07-29T08:33:28;18.88;;;17.80;;
13849;SDS011;6995;52.618;13.488;2022-07-29T08:35:54;18.30;;;17.17;;
13849;SDS011;6995;52.618;13.488;2022-07-29T08:38:26;19.30;;;18.20;;
13849;SDS011;6995;52.618;13.488;2022-07-29T08:40:52;20.20;;;19.00;;
13849;SDS011;6995;52.618;13.488;2022-07-29T08:43:19;17.92;;;16.77;;
13849;SDS011;6995;52.618;13.488;2022-07-29T08:45:49;18.38;;;17.38;;
13849;SDS011;6995;52.618;13.488;2022-07-29T08:48:16;20.23;;;18.63;;
13849;SDS011;6995;52.618;13.488;2022-07-29T08:50:47;18.20;;;16.98;;
13849;SDS011;6995;52.618;13.488;2022-07-29T08:53:15;18.65;;;16.73;;
13849;SDS011;6995;52.618;13.488;2022-07-29T08:55:42;17.63;;;16.63;;
13849;SDS011;6995;52.618;13.488;2022-07-29T08:58:09;18.05;;;16.80;;
13849;SDS011;6995;52.618;13.488;2022-07-29T09:00:36;18.40;;;17.00;;
13849;SDS011;6995;52.618;13.488;2022-07-29T09:03:05;18.77;;;17.35;;
13849;SDS011;6995;52.618;13.488;2022-07-29T09:05:33;17.63;;;16.13;;
13849;SDS011;6995;52.618;13.488;2022-07-29T09:08:00;18.38;;;17.15;;
13849;SDS011;6995;52.618;13.488;2022-07-29T09:10:26;18.00;;;16.70;;
13849;SDS011;6995;52.618;13.488;2022-07-29T09:12:53;20.02;;;18.52;;
13849;SDS011;6995;52.618;13.488;2022-07-29T09:15:19;18.98;;;17.88;;
13849;SDS011;6995;52.618;13.488;2022-07-29T09:17:46;18.38;;;17.17;;
13849;SDS011;6995;52.618;13.488;2022-07-29T09:20:22;20.58;;;19.08;;
13849;SDS011;6995;52.618;13.488;2022-07-29T09:22:48;17.60;;;16.50;;
13849;SDS011;6995;52.618;13.488;2022-07-29T09:28:11;18.58;;;17.38;;
13849;SDS011;6995;52.618;13.488;2022-07-29T09:30:57;16.67;;;15.52;;
13849;SDS011;6995;52.618;13.488;2022-07-29T09:33:23;19.52;;;18.17;;
13849;SDS011;6995;52.618;13.488;2022-07-29T09:36:02;17.42;;;16.23;;
13849;SDS011;6995;52.618;13.488;2022-07-29T09:38:33;16.80;;;15.88;;
13849;SDS011;6995;52.618;13.488;2022-07-29T09:41:01;18.52;;;16.85;;
13849;SDS011;6995;52.618;13.488;2022-07-29T09:43:28;19.25;;;18.05;;
13849;SDS011;6995;52.618;13.488;2022-07-29T09:45:53;20.02;;;18.92;;
13849;SDS011;6995;52.618;13.488;2022-07-29T09:48:24;21.35;;;19.73;;
13849;SDS011;6995;52.618;13.488;2022-07-29T09:50:50;21.88;;;20.20;;
13849;SDS011;6995;52.618;13.488;2022-07-29T09:53:30;20.50;;;19.35;;
13849;SDS011;6995;52.618;13.488;2022-07-29T09:56:00;20.45;;;19.17;;
13849;SDS011;6995;52.618;13.488;2022-07-29T09:58:26;18.65;;;17.55;;
13849;SDS011;6995;52.618;13.488;2022-07-29T10:00:52;20.85;;;19.35;;
13849;SDS011;6995;52.618;13.488;2022-07-29T10:03:19;18.08;;;16.73;;
13849;SDS011;6995;52.618;13.488;2022-07-29T10:05:46;20.10;;;18.88;;
13849;SDS011;6995;52.618;13.488;2022-07-29T10:08:28;19.02;;;17.92;;
13849;SDS011;6995;52.618;13.488;2022-07-29T10:11:03;21.02;;;19.73;;
13849;SDS011;6995;52.618;13.488;2022-07-29T10:13:41;20.10;;;18.73;;
13849;SDS011;6995;52.618;13.488;2022-07-29T10:16:11;20.52;;;19.15;;
13849;SDS011;6995;52.618;13.488;2022-07-29T10:18:38;21.40;;;20.17;;
13849;SDS011;6995;52.618;13.488;2022-07-29T10:21:05;20.58;;;19.17;;
13849;SDS011;6995;52.618;13.488;2022-07-29T10:23:30;21.13;;;19.63;;
13849;SDS011;6995;52.618;13.488;2022-07-29T10:25:57;17.60;;;16.65;;
13849;SDS011;6995;52.618;13.488;2022-07-29T10:28:22;18.85;;;17.45;;
13849;SDS011;6995;52.618;13.488;2022-07-29T10:30:50;17.15;;;16.05;;
13849;SDS011;6995;52.618;13.488;2022-07-29T10:39:00;20.33;;;18.95;;
13849;SDS011;6995;52.618;13.488;2022-07-29T10:42:17;19.85;;;18.48;;
13849;SDS011;6995;52.618;13.488;2022-07-29T10:44:45;21.40;;;19.90;;
13849;SDS011;6995;52.618;13.488;2022-07-29T10:47:21;19.88;;;18.70;;
13849;SDS011;6995;52.618;13.488;2022-07-29T10:49:55;21.05;;;19.70;;
13849;SDS011;6995;52.618;13.488;2022-07-29T10:52:22;21.40;;;20.10;;
13849;SDS011;6995;52.618;13.488;2022-07-29T10:54:49;21.33;;;19.88;;
13849;SDS011;6995;52.618;13.488;2022-07-29T11:05:04;20.70;;;19.35;;
13849;SDS011;6995;52.618;13.488;2022-07-29T11:07:31;21.55;;;20.15;;
13849;SDS011;6995;52.618;13.488;2022-07-29T11:15:08;22.42;;;20.77;;
13849;SDS011;6995;52.618;13.488;2022-07-29T11:22:56;19.60;;;18.42;;
13849;SDS011;6995;52.618;13.488;2022-07-29T11:25:22;20.27;;;19.08;;
13849;SDS011;6995;52.618;13.488;2022-07-29T11:27:49;20.77;;;19.25;;
13849;SDS011;6995;52.618;13.488;2022-07-29T11:30:17;22.58;;;20.52;;
13849;SDS011;6995;52.618;13.488;2022-07-29T11:32:43;20.92;;;19.52;;
13849;SDS011;6995;52.618;13.488;2022-07-29T11:35:19;22.95;;;21.08;;
13849;SDS011;6995;52.618;13.488;2022-07-29T11:38:22;22.33;;;20.95;;
13849;SDS011;6995;52.618;13.488;2022-07-29T11:46:16;19.60;;;18.33;;
13849;SDS011;6995;52.618;13.488;2022-07-29T11:49:04;19.42;;;18.20;;
13849;SDS011;6995;52.618;13.488;2022-07-29T11:51:34;18.58;;;17.38;;
13849;SDS011;6995;52.618;13.488;2022-07-29T11:54:01;16.58;;;15.77;;
13849;SDS011;6995;52.618;13.488;2022-07-29T11:56:29;21.02;;;19.80;;
13849;SDS011;6995;52.618;13.488;2022-07-29T11:59:06;23.85;;;22.42;;
13849;SDS011;6995;52.618;13.488;2022-07-29T12:01:34;20.50;;;19.20;;
13849;SDS011;6995;52.618;13.488;2022-07-29T12:04:04;21.65;;;20.45;;
13849;SDS011;6995;52.618;13.488;2022-07-29T12:06:31;20.73;;;19.33;;
13849;SDS011;6995;52.618;13.488;2022-07-29T12:08:58;20.80;;;19.70;;
13849;SDS011;6995;52.618;13.488;2022-07-29T12:11:23;20.58;;;19.40;;
13849;SDS011;6995;52.618;13.488;2022-07-29T12:13:50;22.05;;;20.75;;
13849;SDS011;6995;52.618;13.488;2022-07-29T12:16:17;23.50;;;22.00;;
13849;SDS011;6995;52.618;13.488;2022-07-29T12:21:22;21.80;;;20.40;;
13849;SDS011;6995;52.618;13.488;2022-07-29T12:23:52;20.80;;;19.55;;
13849;SDS011;6995;52.618;13.488;2022-07-29T12:26:19;21.73;;;19.98;;
13849;SDS011;6995;52.618;13.488;2022-07-29T12:28:45;20.98;;;19.42;;
13849;SDS011;6995;52.618;13.488;2022-07-29T12:31:14;18.98;;;18.00;;
13849;SDS011;6995;52.618;13.488;2022-07-29T12:36:17;16.67;;;15.57;;
13849;SDS011;6995;52.618;13.488;2022-07-29T12:38:43;16.48;;;15.25;;
13849;SDS011;6995;52.618;13.488;2022-07-29T12:41:09;19.00;;;17.67;;
13849;SDS011;6995;52.618;13.488;2022-07-29T12:43:35;17.83;;;16.25;;
13849;SDS011;6995;52.618;13.488;2022-07-29T12:46:13;16.33;;;15.18;;
13849;SDS011;6995;52.618;13.488;2022-07-29T12:48:40;16.85;;;15.75;;
13849;SDS011;6995;52.618;13.488;2022-07-29T12:51:08;18.70;;;17.10;;
13849;SDS011;6995;52.618;13.488;2022-07-29T12:53:35;18.17;;;16.98;;
13849;SDS011;6995;52.618;13.488;2022-07-29T12:56:02;19.70;;;18.50;;
13849;SDS011;6995;52.618;13.488;2022-07-29T13:01:09;17.25;;;15.82;;
13849;SDS011;6995;52.618;13.488;2022-07-29T13:03:55;18.15;;;16.95;;
13849;SDS011;6995;52.618;13.488;2022-07-29T13:06:38;19.20;;;17.77;;
13849;SDS011;6995;52.618;13.488;2022-07-29T13:14:10;20.13;;;18.42;;
13849;SDS011;6995;52.618;13.488;2022-07-29T13:16:59;22.60;;;20.40;;
13849;SDS011;6995;52.618;13.488;2022-07-29T13:19:36;18.90;;;17.90;;
13849;SDS011;6995;52.618;13.488;2022-07-29T13:22:05;21.17;;;19.10;;
13849;SDS011;6995;52.618;13.488;2022-07-29T13:24:32;19.65;;;18.13;;
13849;SDS011;6995;52.618;13.488;2022-07-29T13:26:58;15.60;;;14.27;;
13849;SDS011;6995;52.618;13.488;2022-07-29T13:29:24;16.98;;;15.38;;
13849;SDS011;6995;52.618;13.488;2022-07-29T13:31:51;16.90;;;15.35;;
13849;SDS011;6995;52.618;13.488;2022-07-29T13:34:17;17.10;;;15.80;;
13849;SDS011;6995;52.618;13.488;2022-07-29T13:36:47;18.30;;;17.08;;
13849;SDS011;6995;52.618;13.488;2022-07-29T13:39:12;16.50;;;15.30;;
13849;SDS011;6995;52.618;13.488;2022-07-29T13:41:38;15.95;;;14.75;;
13849;SDS011;6995;52.618;13.488;2022-07-29T13:44:04;16.95;;;15.65;;
13849;SDS011;6995;52.618;13.488;2022-07-29T13:46:29;15.32;;;14.27;;
13849;SDS011;6995;52.618;13.488;2022-07-29T13:48:57;17.60;;;16.33;;
13849;SDS011;6995;52.618;13.488;2022-07-29T13:51:23;16.75;;;15.27;;
13849;SDS011;6995;52.618;13.488;2022-07-29T13:53:48;19.77;;;18.45;;
13849;SDS011;6995;52.618;13.488;2022-07-29T13:56:14;19.88;;;18.45;;
13849;SDS011;6995;52.618;13.488;2022-07-29T13:58:39;18.98;;;17.77;;
13849;SDS011;6995;52.618;13.488;2022-07-29T14:01:05;18.15;;;16.83;;
13849;SDS011;6995;52.618;13.488;2022-07-29T14:03:31;18.58;;;16.98;;
13849;SDS011;6995;52.618;13.488;2022-07-29T14:05:56;18.88;;;17.25;;
13849;SDS011;6995;52.618;13.488;2022-07-29T14:08:25;18.58;;;17.17;;
13849;SDS011;6995;52.618;13.488;2022-07-29T14:10:51;17.92;;;16.35;;
13849;SDS011;6995;52.618;13.488;2022-07-29T14:13:16;16.30;;;15.30;;
13849;SDS011;6995;52.618;13.488;2022-07-29T14:15:42;16.58;;;15.77;;
13849;SDS011;6995;52.618;13.488;2022-07-29T14:18:08;16.33;;;15.15;;
13849;SDS011;6995;52.618;13.488;2022-07-29T14:20:33;16.40;;;15.48;;
13849;SDS011;6995;52.618;13.488;2022-07-29T14:22:59;16.25;;;15.30;;
13849;SDS011;6995;52.618;13.488;2022-07-29T14:25:24;16.58;;;15.40;;
13849;SDS011;6995;52.618;13.488;2022-07-29T14:27:50;17.20;;;15.93;;
13849;SDS011;6995;52.618;13.488;2022-07-29T14:30:18;17.60;;;16.30;;
13849;SDS011;6995;52.618;13.488;2022-07-29T14:32:43;16.65;;;15.35;;
13849;SDS011;6995;52.618;13.488;2022-07-29T14:35:09;18.90;;;17.58;;
13849;SDS011;6995;52.618;13.488;2022-07-29T14:37:35;17.98;;;16.67;;
13849;SDS011;6995;52.618;13.488;2022-07-29T14:40:01;16.42;;;15.18;;
13849;SDS011;6995;52.618;13.488;2022-07-29T14:42:29;17.70;;;16.33;;
